Time;durP1;ratioP1;P1;durP2;ratioP2;P2;SDS_P1;SDS_P2;PMS_P1;PMS_P2;Temp;Humidity;BMP_temperature;BMP_pressure;BME280_temperature;BME280_humidity;BME280_pressure;Samples;Min_cycle;Max_cycle;Signal;HPM_P1;HPM_P2
2022/03/01 00:02:06;;;;;;;23.05;12.90;;;0.10;60.30;;;;;;4922997;28;20040;-66
2022/03/01 00:04:32;;;;;;;23.20;12.20;;;0.10;60.20;;;;;;4917713;28;20035;-67
2022/03/01 00:06:57;;;;;;;21.60;11.90;;;0.10;60.30;;;;;;4924838;28;20083;-66
2022/03/01 00:09:23;;;;;;;19.85;10.77;;;0.10;60.40;;;;;;4923148;28;20695;-65
2022/03/01 00:11:49;;;;;;;20.48;11.82;;;0.10;60.40;;;;;;4921123;29;20043;-66
2022/03/01 00:14:14;;;;;;;23.60;11.85;;;0.00;60.40;;;;;;4925879;28;20144;-66
2022/03/01 00:16:40;;;;;;;21.83;12.10;;;0.00;60.40;;;;;;4922845;28;20024;-66
2022/03/01 00:19:06;;;;;;;21.70;11.82;;;0.00;60.40;;;;;;4932399;28;20066;-66
2022/03/01 00:21:31;;;;;;;20.50;11.73;;;0.00;60.50;;;;;;4930156;28;20123;-66
2022/03/01 00:23:57;;;;;;;23.10;11.40;;;-0.10;60.60;;;;;;4930442;28;20062;-66
2022/03/01 00:26:23;;;;;;;18.65;10.52;;;-0.10;61.50;;;;;;4931085;28;20507;-68
2022/03/01 00:28:49;;;;;;;17.70;9.60;;;-0.10;60.70;;;;;;4930231;28;20046;-66
2022/03/01 00:31:15;;;;;;;19.55;9.88;;;-0.10;60.70;;;;;;4932736;28;20051;-66
2022/03/01 00:33:41;;;;;;;18.63;9.80;;;-0.10;60.70;;;;;;4931924;28;20040;-66
2022/03/01 00:36:07;;;;;;;17.13;9.25;;;-0.10;60.80;;;;;;4932155;28;20412;-64
2022/03/01 00:38:32;;;;;;;17.63;9.52;;;-0.10;60.90;;;;;;4929164;28;20138;-67
2022/03/01 00:40:58;;;;;;;19.17;9.82;;;-0.10;61.00;;;;;;4928908;28;20491;-66
2022/03/01 00:43:24;;;;;;;20.25;10.15;;;-0.10;61.10;;;;;;4933588;28;20040;-66
2022/03/01 00:45:51;;;;;;;18.27;9.38;;;-0.20;61.30;;;;;;4930235;28;20035;-66
2022/03/01 00:48:16;;;;;;;22.20;10.10;;;-0.20;61.40;;;;;;4933215;28;20166;-66
2022/03/01 00:50:42;;;;;;;18.05;9.40;;;-0.20;61.30;;;;;;4930651;28;20135;-65
2022/03/01 00:53:08;;;;;;;20.75;10.45;;;-0.20;61.30;;;;;;4930108;28;20066;-66
2022/03/01 00:55:34;;;;;;;19.13;9.98;;;-0.20;61.40;;;;;;4932205;28;20031;-66
2022/03/01 00:58:00;;;;;;;19.40;9.32;;;-0.20;61.30;;;;;;4928368;28;20234;-66
2022/03/01 01:00:28;;;;;;;19.58;9.93;;;-0.20;61.30;;;;;;4929694;28;20148;-65
2022/03/01 01:02:53;;;;;;;19.95;10.27;;;-0.20;61.30;;;;;;4929940;28;20247;-66
2022/03/01 01:05:19;;;;;;;20.25;9.65;;;-0.20;61.10;;;;;;4930698;28;20036;-66
2022/03/01 01:07:45;;;;;;;17.48;9.63;;;-0.20;61.10;;;;;;4930814;28;20555;-66
2022/03/01 01:10:11;;;;;;;18.00;9.25;;;-0.20;61.00;;;;;;4931013;28;20526;-66
2022/03/01 01:12:37;;;;;;;20.48;9.65;;;-0.30;60.90;;;;;;4927574;28;20117;-66
2022/03/01 01:15:04;;;;;;;19.90;9.73;;;-0.30;61.00;;;;;;4931701;28;20046;-66
2022/03/01 01:17:30;;;;;;;18.10;10.20;;;-0.30;61.00;;;;;;4930510;28;20515;-65
2022/03/01 01:19:56;;;;;;;16.65;9.43;;;-0.40;61.00;;;;;;4928942;28;20063;-66
2022/03/01 01:22:40;;;;;;;17.52;9.85;;;-0.40;61.00;;;;;;4928553;29;20539;-66
2022/03/01 01:25:14;;;;;;;;;;;-0.40;60.90;;;;;;4933710;28;20036;-66
2022/03/01 01:27:42;;;;;;;18.77;9.35;;;-0.40;61.60;;;;;;4929945;28;19930;-66
2022/03/01 01:30:10;;;;;;;20.90;10.57;;;-0.40;60.60;;;;;;4928031;28;20508;-66
2022/03/01 01:32:36;;;;;;;20.50;10.93;;;-0.50;60.70;;;;;;4921316;28;20046;-66
2022/03/01 01:35:02;;;;;;;22.63;11.93;;;-0.50;60.80;;;;;;4927743;28;20040;-66
2022/03/01 01:37:27;;;;;;;18.98;10.52;;;-0.60;60.90;;;;;;4926982;28;20032;-64
2022/03/01 01:39:53;;;;;;;23.08;12.13;;;-0.60;61.10;;;;;;4926040;29;20040;-67
2022/03/01 01:42:18;;;;;;;20.45;11.25;;;-0.60;61.30;;;;;;4925557;28;20304;-65
2022/03/01 01:44:44;;;;;;;18.50;11.27;;;-0.70;61.30;;;;;;4925651;28;20514;-64
2022/03/01 01:47:10;;;;;;;24.13;12.32;;;-0.70;61.30;;;;;;4924754;28;20060;-66
2022/03/01 01:49:36;;;;;;;20.42;11.80;;;-0.70;61.50;;;;;;4929018;28;20032;-66
2022/03/01 01:52:02;;;;;;;23.30;10.93;;;-0.80;61.40;;;;;;4926877;28;20035;-66
2022/03/01 01:54:28;;;;;;;19.83;11.30;;;-0.80;61.60;;;;;;4923155;28;20120;-66
2022/03/01 01:56:54;;;;;;;24.73;12.27;;;-0.80;61.60;;;;;;4926354;28;20470;-67
2022/03/01 01:59:20;;;;;;;24.45;11.70;;;-0.80;61.60;;;;;;4927598;28;20039;-66
2022/03/01 02:01:46;;;;;;;20.35;11.88;;;-0.80;61.70;;;;;;4925261;28;20028;-66
2022/03/01 02:04:11;;;;;;;22.20;11.68;;;-0.80;61.80;;;;;;4926132;28;20032;-66
2022/03/01 02:06:48;;;;;;;23.58;12.35;;;-0.80;61.80;;;;;;4928326;28;20036;-66
2022/03/01 02:09:14;;;;;;;23.25;12.60;;;-0.90;61.80;;;;;;4925724;28;20050;-66
2022/03/01 02:11:39;;;;;;;25.15;13.07;;;-0.90;61.80;;;;;;4926823;29;20043;-66
2022/03/01 02:14:05;;;;;;;25.50;13.90;;;-0.90;61.90;;;;;;4926434;28;20112;-66
2022/03/01 02:16:31;;;;;;;27.65;14.35;;;-1.00;62.00;;;;;;4924696;28;20035;-66
2022/03/01 02:18:57;;;;;;;25.05;13.48;;;-1.00;62.10;;;;;;4926347;28;20028;-64
2022/03/01 02:21:23;;;;;;;25.58;13.93;;;-1.10;62.10;;;;;;4924960;28;20391;-66
2022/03/01 02:23:49;;;;;;;26.40;14.50;;;-1.20;62.30;;;;;;4925810;28;20051;-66
2022/03/01 02:26:14;;;;;;;30.58;14.15;;;-1.20;62.30;;;;;;4927494;28;20051;-66
2022/03/01 02:28:40;;;;;;;24.13;13.40;;;-1.30;62.40;;;;;;4921391;28;20122;-65
2022/03/01 02:31:05;;;;;;;25.13;14.02;;;-1.30;62.50;;;;;;4925831;28;20170;-66
2022/03/01 02:33:31;;;;;;;23.77;13.10;;;-1.30;62.50;;;;;;4928856;28;20046;-66
2022/03/01 02:35:57;;;;;;;24.50;13.50;;;-1.40;62.60;;;;;;4926479;28;20142;-66
2022/03/01 02:38:22;;;;;;;22.25;12.60;;;-1.40;62.70;;;;;;4926774;28;20042;-66
2022/03/01 02:40:48;;;;;;;24.67;13.07;;;-1.50;62.80;;;;;;4924954;28;20118;-66
2022/03/01 02:43:14;;;;;;;23.08;13.15;;;-1.50;63.00;;;;;;4926080;28;20050;-66
2022/03/01 02:45:40;;;;;;;24.00;13.32;;;-1.60;63.90;;;;;;4924530;28;20094;-66
2022/03/01 02:48:05;;;;;;;24.00;12.45;;;-1.60;63.10;;;;;;4925889;28;20567;-66
2022/03/01 02:50:31;;;;;;;22.70;12.75;;;-1.60;63.20;;;;;;4920055;28;20095;-66
2022/03/01 02:52:57;;;;;;;23.60;12.05;;;-1.60;63.30;;;;;;4924501;28;20047;-66
2022/03/01 02:55:22;;;;;;;22.48;12.32;;;-1.60;63.30;;;;;;4926959;28;20059;-66
2022/03/01 02:57:48;;;;;;;23.27;12.80;;;-1.60;63.30;;;;;;4926075;28;20032;-66
2022/03/01 03:00:14;;;;;;;23.08;11.13;;;-1.60;63.30;;;;;;4926693;28;20031;-66
2022/03/01 03:02:41;;;;;;;23.95;11.77;;;-1.60;63.20;;;;;;4926633;28;20042;-67
2022/03/01 03:05:07;;;;;;;21.33;11.30;;;-1.50;63.20;;;;;;4928091;28;20039;-66
2022/03/01 03:07:33;;;;;;;23.90;12.93;;;-1.50;63.20;;;;;;4925657;28;20463;-66
2022/03/01 03:09:58;;;;;;;24.92;12.68;;;-1.50;63.20;;;;;;4922038;28;20034;-66
2022/03/01 03:12:24;;;;;;;23.20;12.73;;;-1.50;63.30;;;;;;4925122;28;20038;-67
2022/03/01 03:14:50;;;;;;;20.27;11.98;;;-1.50;63.40;;;;;;4921766;28;20095;-65
2022/03/01 03:17:15;;;;;;;24.70;12.25;;;-1.40;63.60;;;;;;4925000;28;20097;-66
2022/03/01 03:19:41;;;;;;;23.02;12.25;;;-1.40;63.60;;;;;;4924659;28;20332;-66
2022/03/01 03:22:07;;;;;;;21.58;11.88;;;-1.40;63.50;;;;;;4924086;28;20408;-66
2022/03/01 03:24:33;;;;;;;24.13;11.98;;;-1.30;63.50;;;;;;4922566;28;20043;-65
2022/03/01 03:26:58;;;;;;;22.60;11.77;;;-1.30;63.50;;;;;;4923254;28;20035;-66
2022/03/01 03:29:24;;;;;;;20.25;11.20;;;-1.30;63.40;;;;;;4924711;28;20543;-66
2022/03/01 03:31:54;;;;;;;27.88;11.75;;;-1.30;63.40;;;;;;4923471;28;20055;-65
2022/03/01 03:34:20;;;;;;;22.23;11.48;;;-1.20;63.50;;;;;;4925995;28;20654;-66
2022/03/01 03:36:45;;;;;;;22.35;10.93;;;-1.20;63.60;;;;;;4917882;28;20114;-66
2022/03/01 03:39:11;;;;;;;24.50;11.95;;;-1.20;63.50;;;;;;4924495;28;20067;-66
2022/03/01 03:41:38;;;;;;;23.20;11.70;;;-1.20;63.70;;;;;;4917166;28;20118;-67
2022/03/01 03:44:04;;;;;;;23.25;11.60;;;-1.20;63.90;;;;;;4925526;28;20035;-66
2022/03/01 03:46:30;;;;;;;23.33;11.60;;;-1.20;63.90;;;;;;4924749;28;20323;-66
2022/03/01 03:48:56;;;;;;;20.42;10.88;;;-1.20;63.70;;;;;;4924970;28;20503;-65
2022/03/01 03:51:23;;;;;;;20.77;11.77;;;-1.20;63.60;;;;;;4925937;28;20042;-66
2022/03/01 03:53:49;;;;;;;23.55;11.05;;;-1.20;63.50;;;;;;4926019;28;20086;-66
2022/03/01 03:56:14;;;;;;;23.45;10.98;;;-1.20;63.40;;;;;;4925701;28;20044;-66
2022/03/01 03:58:40;;;;;;;23.08;11.13;;;-1.20;63.30;;;;;;4925324;28;20036;-66
2022/03/01 04:01:06;;;;;;;26.40;11.55;;;-1.30;63.20;;;;;;4924166;28;20575;-66
2022/03/01 04:03:32;;;;;;;20.55;10.82;;;-1.30;63.20;;;;;;4922905;29;20447;-66
2022/03/01 04:05:58;;;;;;;26.08;13.48;;;-1.30;63.10;;;;;;4928784;28;20064;-66
2022/03/01 04:08:24;;;;;;;27.75;13.35;;;-1.30;63.10;;;;;;4928309;28;20031;-67
2022/03/01 04:10:50;;;;;;;26.38;13.88;;;-1.30;63.30;;;;;;4925237;28;20062;-66
2022/03/01 04:13:15;;;;;;;26.92;12.75;;;-1.30;63.60;;;;;;4927972;28;20032;-65
2022/03/01 04:15:41;;;;;;;28.08;12.00;;;-1.30;63.50;;;;;;4927616;28;20115;-65
2022/03/01 04:18:07;;;;;;;26.13;12.35;;;-1.40;63.40;;;;;;4923467;28;20040;-65
2022/03/01 04:20:33;;;;;;;21.92;12.15;;;-1.40;63.50;;;;;;4922077;28;20031;-66
2022/03/01 04:22:58;;;;;;;23.20;12.30;;;-1.40;63.40;;;;;;4921421;28;20035;-65
2022/03/01 04:25:24;;;;;;;24.38;12.15;;;-1.40;63.30;;;;;;4921707;28;20590;-64
2022/03/01 04:27:50;;;;;;;26.55;12.15;;;-1.40;63.30;;;;;;4921562;28;20070;-66
2022/03/01 04:30:17;;;;;;;26.67;13.07;;;-1.50;63.20;;;;;;4918863;29;20035;-64
2022/03/01 04:32:45;;;;;;;21.80;11.98;;;-1.40;63.30;;;;;;4920882;28;20036;-66
2022/03/01 04:35:11;;;;;;;23.42;11.63;;;-1.50;63.50;;;;;;4922640;28;20040;-66
2022/03/01 04:37:39;;;;;;;28.20;11.98;;;-1.50;63.50;;;;;;4917243;29;20036;-64
2022/03/01 04:40:06;;;;;;;25.02;12.45;;;-1.50;63.50;;;;;;4916749;29;20035;-64
2022/03/01 04:42:32;;;;;;;22.92;10.90;;;-1.60;63.50;;;;;;4921652;28;20039;-66
2022/03/01 04:44:59;;;;;;;23.55;11.77;;;-1.60;63.50;;;;;;4914424;28;20079;-66
2022/03/01 04:47:25;;;;;;;29.15;12.25;;;-1.60;63.60;;;;;;4923519;28;20031;-66
2022/03/01 04:49:51;;;;;;;28.00;12.05;;;-1.60;63.70;;;;;;4926415;28;20035;-66
2022/03/01 04:52:16;;;;;;;25.98;11.35;;;-1.60;63.70;;;;;;4916229;29;20047;-66
2022/03/01 04:54:42;;;;;;;31.45;11.63;;;-1.60;63.60;;;;;;4924280;28;20036;-66
2022/03/01 04:57:08;;;;;;;24.20;10.50;;;-1.60;63.60;;;;;;4922850;28;20498;-65
2022/03/01 04:59:33;;;;;;;24.77;11.38;;;-1.70;63.60;;;;;;4923107;28;20123;-65
2022/03/01 05:01:59;;;;;;;25.75;11.77;;;-1.70;63.70;;;;;;4921737;28;20042;-66
2022/03/01 05:04:25;;;;;;;24.20;11.85;;;-1.70;64.00;;;;;;4924976;28;20110;-66
2022/03/01 05:06:51;;;;;;;31.60;11.48;;;-1.70;64.00;;;;;;4919371;29;20571;-66
2022/03/01 05:09:17;;;;;;;29.40;12.05;;;-1.70;64.10;;;;;;4927717;28;20431;-66
2022/03/01 05:11:43;;;;;;;21.48;11.05;;;-1.70;64.10;;;;;;4922611;29;20044;-66
2022/03/01 05:14:08;;;;;;;28.67;11.65;;;-1.70;64.00;;;;;;4927824;28;20071;-65
2022/03/01 05:16:35;;;;;;;27.60;12.65;;;-1.60;64.00;;;;;;4926548;28;20028;-65
2022/03/01 05:19:01;;;;;;;22.15;11.70;;;-1.70;63.80;;;;;;4927379;28;20036;-66
2022/03/01 05:21:28;;;;;;;26.40;11.90;;;-1.70;63.70;;;;;;4926182;28;20059;-66
2022/03/01 05:23:54;;;;;;;27.67;12.18;;;-1.70;63.60;;;;;;4926537;28;20040;-65
2022/03/01 05:26:19;;;;;;;25.75;12.07;;;-1.80;63.70;;;;;;4925169;29;20468;-65
2022/03/01 05:28:45;;;;;;;28.90;12.07;;;-1.70;63.90;;;;;;4925109;28;20340;-65
2022/03/01 05:31:11;;;;;;;24.42;11.85;;;-1.80;63.90;;;;;;4926827;28;20434;-66
2022/03/01 05:33:36;;;;;;;21.23;11.05;;;-1.90;63.90;;;;;;4924791;29;20095;-65
2022/03/01 05:36:02;;;;;;;23.13;11.93;;;-1.90;63.90;;;;;;4926191;28;20031;-65
2022/03/01 05:38:28;;;;;;;23.85;11.00;;;-1.90;64.00;;;;;;4927837;28;20553;-66
2022/03/01 05:40:54;;;;;;;23.13;11.63;;;-1.90;63.90;;;;;;4928575;28;20028;-63
2022/03/01 05:43:20;;;;;;;27.35;11.15;;;-1.90;63.90;;;;;;4928405;28;20043;-66
2022/03/01 05:45:45;;;;;;;24.95;11.88;;;-1.90;63.90;;;;;;4928989;28;20042;-69
2022/03/01 05:48:11;;;;;;;23.88;11.75;;;-2.00;64.00;;;;;;4926744;28;20066;-66
2022/03/01 05:50:37;;;;;;;24.63;11.52;;;-1.90;64.20;;;;;;4928428;28;20115;-66
2022/03/01 05:53:03;;;;;;;25.65;13.00;;;-1.90;64.40;;;;;;4927385;28;20038;-66
2022/03/01 05:55:29;;;;;;;26.15;11.70;;;-1.90;64.30;;;;;;4929198;28;20032;-66
2022/03/01 05:57:55;;;;;;;21.83;11.60;;;-1.90;64.20;;;;;;4922529;29;20102;-66
2022/03/01 06:00:21;;;;;;;24.42;10.77;;;-1.90;64.30;;;;;;4928264;28;20503;-66
2022/03/01 06:02:48;;;;;;;26.10;11.18;;;-1.90;64.20;;;;;;4925898;28;20038;-66
2022/03/01 06:05:17;;;;;;;21.83;10.60;;;-1.90;64.40;;;;;;4926944;29;20495;-66
2022/03/01 06:07:43;;;;;;;28.10;11.43;;;-1.90;64.20;;;;;;4927041;28;20407;-66
2022/03/01 06:10:10;;;;;;;24.08;11.57;;;-1.90;64.10;;;;;;4926999;28;20112;-65
2022/03/01 06:12:36;;;;;;;25.92;10.68;;;-1.90;64.10;;;;;;4923924;28;20032;-66
2022/03/01 06:15:03;;;;;;;23.65;10.38;;;-1.90;65.00;;;;;;4928918;28;20028;-66
2022/03/01 06:17:28;;;;;;;21.13;10.60;;;-1.90;64.20;;;;;;4928397;28;20043;-66
2022/03/01 06:19:54;;;;;;;20.67;9.93;;;-1.90;64.20;;;;;;4927637;28;20036;-66
2022/03/01 06:22:20;;;;;;;22.45;10.18;;;-1.90;64.30;;;;;;4923239;29;20036;-66
2022/03/01 06:24:47;;;;;;;22.52;10.40;;;-1.90;64.30;;;;;;4929845;28;20550;-67
2022/03/01 06:27:13;;;;;;;24.10;10.82;;;-1.90;64.30;;;;;;4921520;29;20040;-66
2022/03/01 06:29:38;;;;;;;20.33;10.57;;;-1.80;64.40;;;;;;4929755;28;20072;-66
2022/03/01 06:32:05;;;;;;;22.23;10.68;;;-1.90;64.40;;;;;;4922266;29;20071;-66
2022/03/01 06:34:31;;;;;;;25.20;11.30;;;-1.80;64.60;;;;;;4944603;28;20958;-66
2022/03/01 06:36:58;;;;;;;18.30;9.57;;;-1.80;64.60;;;;;;4929162;28;20210;-66
2022/03/01 06:39:23;;;;;;;23.88;10.70;;;-1.80;64.70;;;;;;4928386;28;20035;-66
2022/03/01 06:41:50;;;;;;;21.08;11.00;;;-1.80;64.80;;;;;;4928129;28;20046;-66
2022/03/01 06:44:17;;;;;;;25.02;11.02;;;-1.80;64.90;;;;;;4928499;28;20522;-67
2022/03/01 06:46:42;;;;;;;25.33;10.60;;;-1.80;65.10;;;;;;4927905;28;20042;-67
2022/03/01 06:49:08;;;;;;;21.88;10.27;;;-1.80;65.20;;;;;;4928059;28;20031;-65
2022/03/01 06:51:34;;;;;;;24.02;10.82;;;-1.80;65.30;;;;;;4926245;28;20539;-66
2022/03/01 06:54:00;;;;;;;26.80;11.07;;;-1.70;65.40;;;;;;4922067;29;20036;-66
2022/03/01 06:56:26;;;;;;;26.83;11.60;;;-1.70;65.50;;;;;;4926016;28;20388;-66
2022/03/01 06:58:51;;;;;;;22.85;10.73;;;-1.70;65.50;;;;;;4928761;28;20042;-66
2022/03/01 07:01:17;;;;;;;25.60;11.23;;;-1.70;65.60;;;;;;4926687;29;20388;-66
2022/03/01 07:03:43;;;;;;;26.77;11.32;;;-1.70;65.80;;;;;;4931283;28;20035;-66
2022/03/01 07:06:10;;;;;;;28.58;12.77;;;-1.60;66.70;;;;;;4928623;28;20050;-63
2022/03/01 07:08:35;;;;;;;27.40;12.40;;;-1.60;66.80;;;;;;4928128;28;20042;-66
2022/03/01 07:11:01;;;;;;;26.10;11.40;;;-1.60;67.20;;;;;;4925043;29;20035;-66
2022/03/01 07:13:27;;;;;;;21.88;11.00;;;-1.70;66.50;;;;;;4927400;28;20039;-66
2022/03/01 07:15:52;;;;;;;24.90;11.02;;;-1.70;66.30;;;;;;4927552;28;20143;-66
2022/03/01 07:18:18;;;;;;;25.40;11.20;;;-1.70;66.30;;;;;;4930964;28;20039;-63
2022/03/01 07:20:44;;;;;;;29.45;11.55;;;-1.70;66.40;;;;;;4921915;28;20049;-66
2022/03/01 07:23:11;;;;;;;20.77;10.35;;;-1.60;66.80;;;;;;4926261;28;20035;-65
2022/03/01 07:25:37;;;;;;;26.80;12.00;;;-1.60;66.70;;;;;;4927042;29;20051;-66
2022/03/01 07:28:04;;;;;;;25.45;13.15;;;-1.60;67.60;;;;;;4928573;28;20406;-66
2022/03/01 07:30:30;;;;;;;24.65;11.02;;;-1.50;67.30;;;;;;4920599;28;20415;-66
2022/03/01 07:33:01;;;;;;;24.20;11.05;;;-1.50;67.30;;;;;;4925973;28;20059;-67
2022/03/01 07:35:27;;;;;;;35.33;11.70;;;-1.50;67.20;;;;;;4928003;28;20028;-66
2022/03/01 07:37:54;;;;;;;34.45;12.23;;;-1.50;67.70;;;;;;4927549;28;20028;-66
2022/03/01 07:40:22;;;;;;;27.63;11.73;;;-1.50;68.30;;;;;;4919471;29;20039;-66
2022/03/01 07:42:48;;;;;;;22.55;11.65;;;-1.40;67.90;;;;;;4928014;28;20032;-66
2022/03/01 07:45:14;;;;;;;21.63;11.35;;;-1.40;67.60;;;;;;4926528;28;20047;-65
2022/03/01 07:47:40;;;;;;;22.70;10.95;;;-1.40;67.30;;;;;;4928153;28;20035;-66
2022/03/01 07:57:08;;;;;;;22.40;11.30;;;-1.20;68.30;;;;;;4930137;28;20094;-66
2022/03/01 07:59:34;;;;;;;21.15;10.90;;;-1.10;67.70;;;;;;4925144;28;20036;-65
2022/03/01 08:01:59;;;;;;;21.35;10.52;;;-1.10;67.00;;;;;;4928171;28;20031;-65
2022/03/01 08:04:25;;;;;;;20.45;11.02;;;-1.00;67.00;;;;;;4927498;28;20161;-65
2022/03/01 08:06:50;;;;;;;22.25;10.32;;;-0.90;67.80;;;;;;4928765;28;20102;-66
2022/03/01 08:09:16;;;;;;;22.65;11.15;;;-0.90;66.80;;;;;;4925916;28;20577;-65
2022/03/01 08:11:42;;;;;;;22.10;10.85;;;-0.80;67.00;;;;;;4922909;28;20036;-64
2022/03/01 08:14:08;;;;;;;20.00;10.60;;;-0.70;66.80;;;;;;4926596;28;20036;-65
2022/03/01 08:16:33;;;;;;;25.15;10.70;;;-0.70;66.60;;;;;;4926002;28;20114;-64
2022/03/01 08:18:59;;;;;;;21.95;10.85;;;-0.60;66.50;;;;;;4928383;28;20094;-65
2022/03/01 08:21:25;;;;;;;20.35;10.60;;;-0.50;66.50;;;;;;4926003;28;20040;-66
2022/03/01 08:23:51;;;;;;;22.50;11.75;;;-0.40;66.50;;;;;;4925870;28;20044;-67
2022/03/01 08:26:16;;;;;;;23.90;11.10;;;-0.40;66.30;;;;;;4926447;28;20094;-65
2022/03/01 08:28:42;;;;;;;20.13;11.18;;;-0.30;66.10;;;;;;4926809;28;20443;-65
2022/03/01 08:31:08;;;;;;;21.52;10.68;;;-0.30;66.00;;;;;;4928999;28;20035;-66
2022/03/01 08:33:33;;;;;;;23.08;11.30;;;-0.20;66.10;;;;;;4925987;28;20066;-66
2022/03/01 08:36:01;;;;;;;18.85;9.85;;;-0.10;66.10;;;;;;4926540;29;20043;-66
2022/03/01 08:38:26;;;;;;;20.80;10.80;;;-0.10;66.00;;;;;;4930608;28;20472;-65
2022/03/01 08:40:53;;;;;;;22.63;11.02;;;0.00;66.00;;;;;;4932299;28;20031;-65
2022/03/01 08:43:20;;;;;;;18.38;9.82;;;0.10;65.70;;;;;;4930232;28;20044;-65
2022/03/01 08:45:46;;;;;;;19.35;9.43;;;0.10;65.40;;;;;;4931312;28;20042;-66
2022/03/01 08:48:11;;;;;;;18.63;9.93;;;0.20;65.30;;;;;;4931136;28;20036;-65
2022/03/01 08:50:37;;;;;;;16.55;9.32;;;0.30;65.30;;;;;;4929828;28;20059;-66
2022/03/01 08:53:03;;;;;;;20.17;10.00;;;0.40;65.30;;;;;;4930045;28;20028;-65
2022/03/01 08:55:29;;;;;;;16.48;8.85;;;0.50;65.00;;;;;;4929833;28;20040;-65
2022/03/01 08:57:55;;;;;;;18.85;9.05;;;0.60;64.80;;;;;;4931787;28;20032;-65
2022/03/01 09:00:21;;;;;;;15.57;9.05;;;0.70;64.60;;;;;;4930114;28;20031;-64
2022/03/01 09:02:46;;;;;;;18.95;9.40;;;0.80;64.40;;;;;;4929642;28;20042;-65
2022/03/01 09:05:12;;;;;;;17.02;9.75;;;0.90;64.20;;;;;;4929417;28;20032;-66
2022/03/01 09:07:38;;;;;;;19.30;9.23;;;0.90;64.00;;;;;;4930038;28;20119;-65
2022/03/01 09:10:06;;;;;;;19.50;10.15;;;1.00;63.90;;;;;;4930455;28;20075;-66
2022/03/01 09:12:32;;;;;;;18.38;9.35;;;1.10;63.90;;;;;;4927816;28;20063;-66
2022/03/01 09:14:57;;;;;;;21.48;9.85;;;1.20;63.80;;;;;;4929809;28;20039;-66
2022/03/01 09:17:23;;;;;;;16.98;9.15;;;1.30;63.60;;;;;;4929548;28;20036;-66
2022/03/01 09:19:49;;;;;;;23.25;11.45;;;1.40;63.40;;;;;;4930975;28;20036;-65
2022/03/01 09:22:15;;;;;;;19.92;10.43;;;1.40;62.90;;;;;;4927263;28;20032;-65
2022/03/01 09:24:41;;;;;;;20.02;9.30;;;1.50;62.80;;;;;;4929955;28;20574;-64
2022/03/01 09:27:07;;;;;;;19.70;9.90;;;1.60;62.80;;;;;;4930844;28;20050;-66
2022/03/01 09:29:33;;;;;;;19.63;10.18;;;1.70;62.60;;;;;;4929311;28;20050;-66
2022/03/01 09:31:59;;;;;;;20.00;10.35;;;1.70;62.40;;;;;;4932085;28;20028;-66
2022/03/01 09:34:26;;;;;;;22.10;11.30;;;1.80;62.40;;;;;;4927505;28;20032;-66
2022/03/01 09:36:52;;;;;;;15.85;9.38;;;1.80;62.20;;;;;;4930961;28;20032;-66
2022/03/01 09:39:18;;;;;;;17.17;9.30;;;1.80;62.00;;;;;;4930607;28;20035;-66
2022/03/01 09:41:44;;;;;;;19.65;9.73;;;1.90;61.90;;;;;;4930983;28;20043;-65
2022/03/01 09:44:10;;;;;;;20.55;8.57;;;1.90;61.60;;;;;;4930811;28;20040;-65
2022/03/01 09:46:38;;;;;;;17.58;9.55;;;2.00;61.70;;;;;;4925520;28;20032;-66
2022/03/01 09:49:05;;;;;;;17.98;9.20;;;2.00;61.60;;;;;;4929536;28;20042;-66
2022/03/01 09:51:33;;;;;;;17.10;9.27;;;2.10;61.50;;;;;;4928962;28;20032;-66
2022/03/01 09:53:58;;;;;;;17.73;9.50;;;2.20;61.40;;;;;;4929764;28;20051;-65
2022/03/01 09:56:24;;;;;;;17.60;8.95;;;2.20;61.20;;;;;;4930398;28;20063;-65
2022/03/01 09:58:51;;;;;;;16.85;9.35;;;2.30;61.10;;;;;;4930065;28;20036;-65
2022/03/01 10:01:17;;;;;;;16.95;9.60;;;2.40;60.90;;;;;;4928311;28;20027;-65
2022/03/01 10:03:48;;;;;;;18.55;9.43;;;2.40;61.00;;;;;;4931053;28;20036;-66
2022/03/01 10:06:16;;;;;;;15.88;9.48;;;2.50;61.00;;;;;;4928381;28;20027;-64
2022/03/01 10:08:42;;;;;;;15.63;9.10;;;2.60;60.80;;;;;;4929776;28;20028;-65
2022/03/01 10:11:08;;;;;;;15.80;8.98;;;2.70;60.70;;;;;;4924131;28;20120;-65
2022/03/01 10:13:38;;;;;;;16.65;9.15;;;2.80;60.60;;;;;;4928183;28;20760;-65
2022/03/01 10:16:13;;;;;;;16.90;9.13;;;2.80;60.40;;;;;;4929604;28;20063;-66
2022/03/01 10:18:39;;;;;;;;;;;2.90;60.40;;;;;;4929364;28;20039;-66
2022/03/01 10:21:11;;;;;;;17.70;8.95;;;3.00;60.30;;;;;;4928221;28;19918;-65
2022/03/01 10:23:47;;;;;;;16.30;8.52;;;3.10;60.50;;;;;;4928302;28;20069;-65
2022/03/01 10:26:13;;;;;;;15.68;8.55;;;3.20;60.20;;;;;;4930926;28;20032;-65
2022/03/01 10:28:40;;;;;;;16.27;9.23;;;3.30;60.10;;;;;;4928887;28;20036;-65
2022/03/01 10:31:17;;;;;;;17.77;9.68;;;3.40;59.30;;;;;;4929387;28;20056;-66
2022/03/01 10:34:05;;;;;;;16.77;8.95;;;3.50;59.10;;;;;;4928851;28;20055;-65
2022/03/01 10:36:44;;;;;;;15.27;9.20;;;3.50;59.20;;;;;;4927320;28;20463;-65
2022/03/01 10:39:11;;;;;;;15.40;8.73;;;3.60;59.20;;;;;;4928225;28;20460;-65
2022/03/01 10:41:39;;;;;;;17.20;9.73;;;3.70;59.20;;;;;;4928510;28;20042;-64
2022/03/01 10:44:06;;;;;;;17.67;9.27;;;3.80;58.80;;;;;;4921822;29;20039;-65
2022/03/01 10:46:46;;;;;;;16.95;8.75;;;3.80;58.80;;;;;;4925474;28;20054;-65
2022/03/01 10:49:14;;;;;;;16.40;8.93;;;3.90;58.80;;;;;;4927816;28;20043;-65
2022/03/01 10:51:54;;;;;;;18.58;10.15;;;3.90;58.90;;;;;;4926470;28;20124;-65
2022/03/01 10:54:37;;;;;;;16.08;9.45;;;4.00;58.00;;;;;;4943451;28;20126;-65
2022/03/01 10:57:06;;;;;;;16.73;9.43;;;4.10;58.30;;;;;;4909964;28;20499;-65
2022/03/01 10:59:35;;;;;;;15.23;9.43;;;4.20;58.60;;;;;;4908705;28;20040;-66
2022/03/01 11:02:01;;;;;;;13.35;8.02;;;4.30;58.30;;;;;;4919726;29;20590;-65
2022/03/01 11:04:27;;;;;;;17.33;9.25;;;4.40;58.20;;;;;;4928189;28;20042;-66
2022/03/01 11:07:01;;;;;;;15.15;8.85;;;4.40;58.00;;;;;;4926888;28;20042;-65
2022/03/01 11:09:29;;;;;;;18.67;9.18;;;4.50;57.70;;;;;;4928185;28;20162;-66
2022/03/01 11:11:57;;;;;;;15.68;9.38;;;4.60;57.80;;;;;;4925677;28;20122;-65
2022/03/01 11:14:28;;;;;;;17.90;10.15;;;4.60;57.50;;;;;;4928756;28;20164;-66
2022/03/01 11:16:56;;;;;;;15.90;9.68;;;4.70;57.30;;;;;;4908029;28;20063;-65
2022/03/01 11:19:38;;;;;;;14.93;9.38;;;4.70;57.30;;;;;;4912214;29;20428;-65
2022/03/01 11:22:06;;;;;;;14.55;8.48;;;4.80;57.30;;;;;;4912280;28;20048;-67
2022/03/01 11:24:33;;;;;;;14.80;9.02;;;4.90;57.90;;;;;;4911777;28;20636;-67
2022/03/01 11:27:06;;;;;;;14.85;9.38;;;4.90;57.20;;;;;;4910037;28;20075;-67
2022/03/01 11:29:38;;;;;;;16.48;9.32;;;5.00;56.80;;;;;;4912051;28;20028;-67
2022/03/01 11:32:12;;;;;;;16.17;9.05;;;5.10;56.60;;;;;;4911397;29;20385;-67
2022/03/01 11:34:39;;;;;;;13.80;9.45;;;5.10;56.60;;;;;;4911660;28;20059;-65
2022/03/01 11:37:11;;;;;;;14.73;8.75;;;5.20;55.70;;;;;;4912202;28;20149;-66
2022/03/01 11:39:37;;;;;;;18.73;9.70;;;5.30;56.40;;;;;;4911786;29;20124;-66
2022/03/01 11:42:14;;;;;;;15.25;9.40;;;5.30;56.00;;;;;;4903657;29;20122;-66
2022/03/01 11:44:47;;;;;;;15.55;9.25;;;5.40;55.60;;;;;;4910674;28;20043;-66
2022/03/01 11:47:24;;;;;;;20.35;9.73;;;5.50;55.80;;;;;;4911530;29;20028;-66
2022/03/01 11:49:49;;;;;;;17.95;9.80;;;5.50;55.30;;;;;;4911337;28;20029;-66
2022/03/01 11:52:20;;;;;;;18.15;10.30;;;5.60;55.60;;;;;;4910935;29;20043;-66
2022/03/01 11:54:48;;;;;;;16.27;9.68;;;5.70;54.40;;;;;;4911137;28;20122;-66
2022/03/01 11:57:14;;;;;;;16.17;9.90;;;5.70;54.30;;;;;;4911325;28;20032;-66
2022/03/01 11:59:42;;;;;;;16.27;9.57;;;5.70;54.00;;;;;;4911277;28;20111;-66
2022/03/01 12:02:10;;;;;;;15.13;9.02;;;5.80;54.20;;;;;;4910534;28;20036;-66
2022/03/01 12:04:47;;;;;;;13.20;8.65;;;5.80;54.70;;;;;;4911745;28;20190;-66
2022/03/01 12:07:24;;;;;;;16.60;8.90;;;5.90;54.20;;;;;;4911484;28;20044;-66
2022/03/01 12:09:58;;;;;;;15.27;9.60;;;5.90;53.90;;;;;;4911110;28;20087;-66
2022/03/01 12:12:32;;;;;;;19.50;9.70;;;6.00;53.50;;;;;;4907149;28;20024;-66
2022/03/01 12:14:58;;;;;;;;;;;6.00;52.50;;;;;;4911748;29;20449;-66
2022/03/01 12:17:24;;;;;;;14.55;8.32;;;6.10;53.20;;;;;;4909573;28;19915;-66
2022/03/01 12:19:59;;;;;;;17.00;9.32;;;6.10;54.30;;;;;;4907072;29;20055;-64
2022/03/01 12:22:25;;;;;;;16.02;9.07;;;6.20;53.30;;;;;;4906281;28;20032;-66
2022/03/01 12:24:50;;;;;;;14.00;9.10;;;6.20;53.20;;;;;;4908609;28;20047;-66
2022/03/01 12:27:18;;;;;;;15.10;9.15;;;6.20;53.00;;;;;;4908448;29;20040;-66
2022/03/01 12:29:47;;;;;;;14.40;8.88;;;6.20;52.30;;;;;;4907817;28;20036;-66
2022/03/01 12:32:18;;;;;;;14.93;8.95;;;6.30;52.60;;;;;;4908972;29;20072;-66
2022/03/01 12:34:43;;;;;;;12.95;8.93;;;6.30;52.50;;;;;;4906647;28;20427;-66
2022/03/01 12:37:14;;;;;;;14.30;8.48;;;6.30;53.00;;;;;;4908172;28;20151;-66
2022/03/01 12:39:41;;;;;;;12.50;8.60;;;6.40;53.20;;;;;;4906448;29;20044;-66
2022/03/01 12:42:07;;;;;;;15.48;8.38;;;6.40;53.20;;;;;;4907901;28;20036;-66